sensor_id;sensor_type;location;lat;lon;timestamp;temperature;humidity
56725;DHT22;42608;52.776;6.968;2023-07-22T00:00:05;14.00;99.90
56725;DHT22;42608;52.776;6.968;2023-07-22T00:02:38;14.00;99.90
56725;DHT22;42608;52.776;6.968;2023-07-22T00:05:03;14.00;99.90
56725;DHT22;42608;52.776;6.968;2023-07-22T00:07:29;14.00;99.90
56725;DHT22;42608;52.776;6.968;2023-07-22T00:09:55;14.00;99.90
56725;DHT22;42608;52.776;6.968;2023-07-22T00:12:20;14.10;99.90
56725;DHT22;42608;52.776;6.968;2023-07-22T00:14:51;14.10;99.90
56725;DHT22;42608;52.776;6.968;2023-07-22T00:17:16;14.10;99.90
56725;DHT22;42608;52.776;6.968;2023-07-22T00:19:42;14.10;99.90
56725;DHT22;42608;52.776;6.968;2023-07-22T00:22:07;14.00;99.90
56725;DHT22;42608;52.776;6.968;2023-07-22T00:24:33;14.00;99.90
56725;DHT22;42608;52.776;6.968;2023-07-22T00:26:59;14.00;99.90
56725;DHT22;42608;52.776;6.968;2023-07-22T00:29:24;14.00;99.90
56725;DHT22;42608;52.776;6.968;2023-07-22T00:31:50;14.00;99.90
56725;DHT22;42608;52.776;6.968;2023-07-22T00:34:16;14.00;99.90
56725;DHT22;42608;52.776;6.968;2023-07-22T00:36:41;14.00;99.90
56725;DHT22;42608;52.776;6.968;2023-07-22T00:39:07;14.00;99.90
56725;DHT22;42608;52.776;6.968;2023-07-22T00:41:33;13.90;99.90
56725;DHT22;42608;52.776;6.968;2023-07-22T00:43:58;13.90;99.90
56725;DHT22;42608;52.776;6.968;2023-07-22T00:46:24;13.90;99.90
56725;DHT22;42608;52.776;6.968;2023-07-22T00:48:49;13.90;99.90
56725;DHT22;42608;52.776;6.968;2023-07-22T00:51:15;13.90;99.90
56725;DHT22;42608;52.776;6.968;2023-07-22T00:53:41;14.00;99.90
56725;DHT22;42608;52.776;6.968;2023-07-22T00:56:06;13.90;99.90
56725;DHT22;42608;52.776;6.968;2023-07-22T00:58:32;13.90;99.90
56725;DHT22;42608;52.776;6.968;2023-07-22T01:00:58;13.90;99.90
56725;DHT22;42608;52.776;6.968;2023-07-22T01:03:24;13.90;99.90
56725;DHT22;42608;52.776;6.968;2023-07-22T01:05:50;13.90;99.90
56725;DHT22;42608;52.776;6.968;2023-07-22T01:08:17;13.90;99.90
56725;DHT22;42608;52.776;6.968;2023-07-22T01:10:42;13.90;99.90
56725;DHT22;42608;52.776;6.968;2023-07-22T01:13:08;13.90;99.90
56725;DHT22;42608;52.776;6.968;2023-07-22T01:15:34;13.90;99.90
56725;DHT22;42608;52.776;6.968;2023-07-22T01:17:59;13.90;99.90
56725;DHT22;42608;52.776;6.968;2023-07-22T01:20:30;13.90;99.90
56725;DHT22;42608;52.776;6.968;2023-07-22T01:22:55;13.90;99.90
56725;DHT22;42608;52.776;6.968;2023-07-22T01:25:21;13.90;99.90
56725;DHT22;42608;52.776;6.968;2023-07-22T01:27:48;13.90;99.90
56725;DHT22;42608;52.776;6.968;2023-07-22T01:30:13;13.90;99.90
56725;DHT22;42608;52.776;6.968;2023-07-22T01:32:39;13.90;99.90
56725;DHT22;42608;52.776;6.968;2023-07-22T01:35:05;13.80;99.90
56725;DHT22;42608;52.776;6.968;2023-07-22T01:37:33;13.80;99.90
56725;DHT22;42608;52.776;6.968;2023-07-22T01:39:59;13.90;99.90
56725;DHT22;42608;52.776;6.968;2023-07-22T01:42:24;13.90;99.90
56725;DHT22;42608;52.776;6.968;2023-07-22T01:44:50;13.90;99.90
56725;DHT22;42608;52.776;6.968;2023-07-22T01:47:15;13.90;99.90
56725;DHT22;42608;52.776;6.968;2023-07-22T01:49:41;13.90;99.90
56725;DHT22;42608;52.776;6.968;2023-07-22T01:52:07;13.90;99.90
56725;DHT22;42608;52.776;6.968;2023-07-22T01:54:33;13.90;99.90
56725;DHT22;42608;52.776;6.968;2023-07-22T01:56:58;13.80;99.90
56725;DHT22;42608;52.776;6.968;2023-07-22T01:59:26;13.80;99.90
56725;DHT22;42608;52.776;6.968;2023-07-22T02:01:51;13.80;99.90
56725;DHT22;42608;52.776;6.968;2023-07-22T02:04:17;13.80;99.90
56725;DHT22;42608;52.776;6.968;2023-07-22T02:06:43;13.80;99.90
56725;DHT22;42608;52.776;6.968;2023-07-22T02:09:10;13.80;99.90
56725;DHT22;42608;52.776;6.968;2023-07-22T02:11:38;13.80;99.90
56725;DHT22;42608;52.776;6.968;2023-07-22T02:14:04;13.70;99.90
56725;DHT22;42608;52.776;6.968;2023-07-22T02:16:35;13.70;99.90
56725;DHT22;42608;52.776;6.968;2023-07-22T02:19:02;13.70;99.90
56725;DHT22;42608;52.776;6.968;2023-07-22T02:21:28;13.80;99.90
56725;DHT22;42608;52.776;6.968;2023-07-22T02:23:54;13.80;99.90
56725;DHT22;42608;52.776;6.968;2023-07-22T02:26:19;13.80;99.90
56725;DHT22;42608;52.776;6.968;2023-07-22T02:28:45;13.80;99.90
56725;DHT22;42608;52.776;6.968;2023-07-22T02:31:12;13.80;99.90
56725;DHT22;42608;52.776;6.968;2023-07-22T02:33:37;13.80;99.90
56725;DHT22;42608;52.776;6.968;2023-07-22T02:36:03;13.80;99.90
56725;DHT22;42608;52.776;6.968;2023-07-22T02:38:29;13.80;99.90
56725;DHT22;42608;52.776;6.968;2023-07-22T02:40:54;13.80;99.90
56725;DHT22;42608;52.776;6.968;2023-07-22T02:43:21;13.80;99.90
56725;DHT22;42608;52.776;6.968;2023-07-22T02:45:47;13.80;99.90
56725;DHT22;42608;52.776;6.968;2023-07-22T02:48:12;13.80;99.90
56725;DHT22;42608;52.776;6.968;2023-07-22T02:50:38;13.70;99.90
56725;DHT22;42608;52.776;6.968;2023-07-22T02:53:06;13.70;99.90
56725;DHT22;42608;52.776;6.968;2023-07-22T02:55:31;13.70;99.90
56725;DHT22;42608;52.776;6.968;2023-07-22T02:57:57;13.70;99.90
56725;DHT22;42608;52.776;6.968;2023-07-22T03:00:22;13.70;99.90
56725;DHT22;42608;52.776;6.968;2023-07-22T03:02:55;13.70;99.90
56725;DHT22;42608;52.776;6.968;2023-07-22T03:05:27;13.70;99.90
56725;DHT22;42608;52.776;6.968;2023-07-22T03:07:53;13.70;99.90
56725;DHT22;42608;52.776;6.968;2023-07-22T03:10:19;13.60;99.90
56725;DHT22;42608;52.776;6.968;2023-07-22T03:12:45;13.60;99.90
56725;DHT22;42608;52.776;6.968;2023-07-22T03:15:10;13.60;99.90
56725;DHT22;42608;52.776;6.968;2023-07-22T03:17:47;13.60;99.90
56725;DHT22;42608;52.776;6.968;2023-07-22T03:20:13;13.60;99.90
56725;DHT22;42608;52.776;6.968;2023-07-22T03:22:46;13.60;99.90
56725;DHT22;42608;52.776;6.968;2023-07-22T03:25:12;13.60;99.90
56725;DHT22;42608;52.776;6.968;2023-07-22T03:27:38;13.60;99.90
56725;DHT22;42608;52.776;6.968;2023-07-22T03:30:04;13.60;99.90
56725;DHT22;42608;52.776;6.968;2023-07-22T03:32:33;13.60;99.90
56725;DHT22;42608;52.776;6.968;2023-07-22T03:34:58;13.60;99.90
56725;DHT22;42608;52.776;6.968;2023-07-22T03:37:24;13.60;99.90
56725;DHT22;42608;52.776;6.968;2023-07-22T03:39:49;13.60;99.90
56725;DHT22;42608;52.776;6.968;2023-07-22T03:42:16;13.60;99.90
56725;DHT22;42608;52.776;6.968;2023-07-22T03:44:41;13.60;99.90
56725;DHT22;42608;52.776;6.968;2023-07-22T03:47:07;13.60;99.90
56725;DHT22;42608;52.776;6.968;2023-07-22T03:49:33;13.70;99.90
56725;DHT22;42608;52.776;6.968;2023-07-22T03:51:58;13.60;99.90
56725;DHT22;42608;52.776;6.968;2023-07-22T03:54:24;13.60;99.90
56725;DHT22;42608;52.776;6.968;2023-07-22T03:56:49;13.60;99.90
56725;DHT22;42608;52.776;6.968;2023-07-22T03:59:17;13.60;99.90
56725;DHT22;42608;52.776;6.968;2023-07-22T04:01:43;13.60;99.90
56725;DHT22;42608;52.776;6.968;2023-07-22T04:04:08;13.70;99.90
56725;DHT22;42608;52.776;6.968;2023-07-22T04:06:34;13.70;99.90
56725;DHT22;42608;52.776;6.968;2023-07-22T04:09:00;13.70;99.90
56725;DHT22;42608;52.776;6.968;2023-07-22T04:11:26;13.70;99.90
56725;DHT22;42608;52.776;6.968;2023-07-22T04:13:52;13.70;99.90
56725;DHT22;42608;52.776;6.968;2023-07-22T04:16:17;13.70;99.90
56725;DHT22;42608;52.776;6.968;2023-07-22T04:18:43;13.70;99.90
56725;DHT22;42608;52.776;6.968;2023-07-22T04:21:09;13.80;99.90
56725;DHT22;42608;52.776;6.968;2023-07-22T04:23:34;13.80;99.90
56725;DHT22;42608;52.776;6.968;2023-07-22T04:26:03;13.80;99.90
56725;DHT22;42608;52.776;6.968;2023-07-22T04:28:33;13.80;99.90
56725;DHT22;42608;52.776;6.968;2023-07-22T04:30:59;13.80;99.90
56725;DHT22;42608;52.776;6.968;2023-07-22T04:33:28;13.80;99.90
56725;DHT22;42608;52.776;6.968;2023-07-22T04:35:55;13.80;99.90
56725;DHT22;42608;52.776;6.968;2023-07-22T04:38:21;13.80;99.90
56725;DHT22;42608;52.776;6.968;2023-07-22T04:40:46;13.80;99.90
56725;DHT22;42608;52.776;6.968;2023-07-22T04:43:12;13.90;99.90
56725;DHT22;42608;52.776;6.968;2023-07-22T04:45:37;13.90;99.90
56725;DHT22;42608;52.776;6.968;2023-07-22T04:48:05;13.90;99.90
56725;DHT22;42608;52.776;6.968;2023-07-22T04:50:31;13.90;99.90
56725;DHT22;42608;52.776;6.968;2023-07-22T04:52:57;13.90;99.90
56725;DHT22;42608;52.776;6.968;2023-07-22T04:55:25;14.00;99.90
56725;DHT22;42608;52.776;6.968;2023-07-22T04:57:51;14.00;99.90
56725;DHT22;42608;52.776;6.968;2023-07-22T05:00:17;14.00;99.90
56725;DHT22;42608;52.776;6.968;2023-07-22T05:02:45;14.00;99.90
56725;DHT22;42608;52.776;6.968;2023-07-22T05:05:12;14.00;99.90
56725;DHT22;42608;52.776;6.968;2023-07-22T05:07:38;14.00;99.90
56725;DHT22;42608;52.776;6.968;2023-07-22T05:10:06;14.10;99.90
56725;DHT22;42608;52.776;6.968;2023-07-22T05:12:37;14.00;99.90
56725;DHT22;42608;52.776;6.968;2023-07-22T05:15:06;14.10;99.90
56725;DHT22;42608;52.776;6.968;2023-07-22T05:17:32;14.10;99.90
56725;DHT22;42608;52.776;6.968;2023-07-22T05:19:57;14.10;99.90
56725;DHT22;42608;52.776;6.968;2023-07-22T05:22:25;14.20;99.90
56725;DHT22;42608;52.776;6.968;2023-07-22T05:24:54;14.20;99.90
56725;DHT22;42608;52.776;6.968;2023-07-22T05:27:21;14.20;99.90
56725;DHT22;42608;52.776;6.968;2023-07-22T05:29:46;14.20;99.90
56725;DHT22;42608;52.776;6.968;2023-07-22T05:32:12;14.20;99.90
56725;DHT22;42608;52.776;6.968;2023-07-22T05:34:37;14.20;99.90
56725;DHT22;42608;52.776;6.968;2023-07-22T05:37:03;14.30;99.90
56725;DHT22;42608;52.776;6.968;2023-07-22T05:39:29;14.30;99.90
56725;DHT22;42608;52.776;6.968;2023-07-22T05:41:54;14.30;99.90
56725;DHT22;42608;52.776;6.968;2023-07-22T05:44:20;14.30;99.90
56725;DHT22;42608;52.776;6.968;2023-07-22T05:46:46;14.30;99.90
56725;DHT22;42608;52.776;6.968;2023-07-22T05:49:12;14.30;99.90
56725;DHT22;42608;52.776;6.968;2023-07-22T05:51:37;14.30;99.90
56725;DHT22;42608;52.776;6.968;2023-07-22T05:54:03;14.30;99.90
56725;DHT22;42608;52.776;6.968;2023-07-22T05:56:28;14.30;99.90
56725;DHT22;42608;52.776;6.968;2023-07-22T05:58:54;14.30;99.90
56725;DHT22;42608;52.776;6.968;2023-07-22T06:01:19;14.30;99.90
56725;DHT22;42608;52.776;6.968;2023-07-22T06:03:45;14.30;99.90
56725;DHT22;42608;52.776;6.968;2023-07-22T06:06:11;14.40;99.90
56725;DHT22;42608;52.776;6.968;2023-07-22T06:08:39;14.40;99.90
56725;DHT22;42608;52.776;6.968;2023-07-22T06:11:05;14.40;99.90
56725;DHT22;42608;52.776;6.968;2023-07-22T06:13:30;14.40;99.90
56725;DHT22;42608;52.776;6.968;2023-07-22T06:15:56;14.40;99.90
56725;DHT22;42608;52.776;6.968;2023-07-22T06:18:22;14.50;99.90
56725;DHT22;42608;52.776;6.968;2023-07-22T06:20:47;14.40;99.90
56725;DHT22;42608;52.776;6.968;2023-07-22T06:23:13;14.50;99.90
56725;DHT22;42608;52.776;6.968;2023-07-22T06:25:39;14.50;99.90
56725;DHT22;42608;52.776;6.968;2023-07-22T06:28:05;14.50;99.90
56725;DHT22;42608;52.776;6.968;2023-07-22T06:30:30;14.50;99.90
56725;DHT22;42608;52.776;6.968;2023-07-22T06:32:56;14.60;99.90
56725;DHT22;42608;52.776;6.968;2023-07-22T06:35:21;14.60;99.90
56725;DHT22;42608;52.776;6.968;2023-07-22T06:37:47;14.60;99.90
56725;DHT22;42608;52.776;6.968;2023-07-22T06:40:13;14.60;99.90
56725;DHT22;42608;52.776;6.968;2023-07-22T06:42:39;14.60;99.90
56725;DHT22;42608;52.776;6.968;2023-07-22T06:45:04;14.70;99.90
56725;DHT22;42608;52.776;6.968;2023-07-22T06:47:30;14.70;99.90
56725;DHT22;42608;52.776;6.968;2023-07-22T06:49:56;14.70;99.90
56725;DHT22;42608;52.776;6.968;2023-07-22T06:52:21;14.80;99.90
56725;DHT22;42608;52.776;6.968;2023-07-22T06:54:47;14.80;99.90
56725;DHT22;42608;52.776;6.968;2023-07-22T06:57:12;14.80;99.90
56725;DHT22;42608;52.776;6.968;2023-07-22T06:59:38;14.80;99.90
56725;DHT22;42608;52.776;6.968;2023-07-22T07:02:04;14.90;99.90
56725;DHT22;42608;52.776;6.968;2023-07-22T07:04:30;14.90;99.90
56725;DHT22;42608;52.776;6.968;2023-07-22T07:06:55;14.90;99.90
56725;DHT22;42608;52.776;6.968;2023-07-22T07:09:21;14.90;99.90
56725;DHT22;42608;52.776;6.968;2023-07-22T07:11:47;15.00;99.90
56725;DHT22;42608;52.776;6.968;2023-07-22T07:14:12;15.00;99.90
56725;DHT22;42608;52.776;6.968;2023-07-22T07:16:38;15.10;99.90
56725;DHT22;42608;52.776;6.968;2023-07-22T07:19:03;15.10;99.90
56725;DHT22;42608;52.776;6.968;2023-07-22T07:21:29;15.20;99.90
56725;DHT22;42608;52.776;6.968;2023-07-22T07:23:55;15.20;99.90
56725;DHT22;42608;52.776;6.968;2023-07-22T07:26:21;15.20;99.90
56725;DHT22;42608;52.776;6.968;2023-07-22T07:28:48;15.30;99.90
56725;DHT22;42608;52.776;6.968;2023-07-22T07:31:16;15.40;99.90
56725;DHT22;42608;52.776;6.968;2023-07-22T07:33:45;15.40;99.90
56725;DHT22;42608;52.776;6.968;2023-07-22T07:36:11;15.40;99.90
56725;DHT22;42608;52.776;6.968;2023-07-22T07:38:36;15.50;99.90
56725;DHT22;42608;52.776;6.968;2023-07-22T07:41:06;15.60;99.90
56725;DHT22;42608;52.776;6.968;2023-07-22T07:43:37;15.60;99.90
56725;DHT22;42608;52.776;6.968;2023-07-22T07:46:25;15.70;99.90
56725;DHT22;42608;52.776;6.968;2023-07-22T07:49:01;15.70;99.90
56725;DHT22;42608;52.776;6.968;2023-07-22T07:51:29;15.70;99.90
56725;DHT22;42608;52.776;6.968;2023-07-22T07:53:57;15.80;99.90
56725;DHT22;42608;52.776;6.968;2023-07-22T07:56:26;15.80;99.90
56725;DHT22;42608;52.776;6.968;2023-07-22T07:58:54;15.80;99.90
56725;DHT22;42608;52.776;6.968;2023-07-22T08:01:20;15.80;99.90
56725;DHT22;42608;52.776;6.968;2023-07-22T08:03:47;15.80;99.90
56725;DHT22;42608;52.776;6.968;2023-07-22T08:06:13;15.90;99.90
56725;DHT22;42608;52.776;6.968;2023-07-22T08:08:39;15.90;99.90
56725;DHT22;42608;52.776;6.968;2023-07-22T08:11:13;16.00;99.90
56725;DHT22;42608;52.776;6.968;2023-07-22T08:13:40;16.10;99.90
56725;DHT22;42608;52.776;6.968;2023-07-22T08:16:07;16.10;99.90
56725;DHT22;42608;52.776;6.968;2023-07-22T08:18:39;16.20;99.90
56725;DHT22;42608;52.776;6.968;2023-07-22T08:21:06;16.20;99.90
56725;DHT22;42608;52.776;6.968;2023-07-22T08:23:35;16.20;99.90
56725;DHT22;42608;52.776;6.968;2023-07-22T08:26:02;16.30;99.90
56725;DHT22;42608;52.776;6.968;2023-07-22T08:28:29;16.40;99.90
56725;DHT22;42608;52.776;6.968;2023-07-22T08:30:58;16.50;99.90
56725;DHT22;42608;52.776;6.968;2023-07-22T08:33:31;16.50;99.90
56725;DHT22;42608;52.776;6.968;2023-07-22T08:35:57;16.60;99.90
56725;DHT22;42608;52.776;6.968;2023-07-22T08:38:22;16.70;99.90
56725;DHT22;42608;52.776;6.968;2023-07-22T08:40:49;16.80;99.90
56725;DHT22;42608;52.776;6.968;2023-07-22T08:43:22;16.80;99.90
56725;DHT22;42608;52.776;6.968;2023-07-22T08:45:49;16.90;99.90
56725;DHT22;42608;52.776;6.968;2023-07-22T08:48:17;17.00;99.90
56725;DHT22;42608;52.776;6.968;2023-07-22T08:50:54;17.10;99.90
56725;DHT22;42608;52.776;6.968;2023-07-22T08:53:20;17.20;99.90
56725;DHT22;42608;52.776;6.968;2023-07-22T08:55:46;17.30;99.90
56725;DHT22;42608;52.776;6.968;2023-07-22T08:58:13;17.30;99.90
56725;DHT22;42608;52.776;6.968;2023-07-22T09:00:40;17.40;99.90
56725;DHT22;42608;52.776;6.968;2023-07-22T09:03:06;17.50;99.90
56725;DHT22;42608;52.776;6.968;2023-07-22T09:05:38;17.60;99.90
56725;DHT22;42608;52.776;6.968;2023-07-22T09:08:07;17.70;99.90
56725;DHT22;42608;52.776;6.968;2023-07-22T09:10:36;17.80;99.90
56725;DHT22;42608;52.776;6.968;2023-07-22T09:13:05;17.90;99.90
56725;DHT22;42608;52.776;6.968;2023-07-22T09:15:35;17.90;99.90
56725;DHT22;42608;52.776;6.968;2023-07-22T09:18:02;18.00;99.90
56725;DHT22;42608;52.776;6.968;2023-07-22T09:20:32;18.00;99.90
56725;DHT22;42608;52.776;6.968;2023-07-22T09:22:59;18.10;99.90
56725;DHT22;42608;52.776;6.968;2023-07-22T09:25:27;18.10;99.90
56725;DHT22;42608;52.776;6.968;2023-07-22T09:27:54;18.20;99.90
56725;DHT22;42608;52.776;6.968;2023-07-22T09:30:37;18.20;99.90
56725;DHT22;42608;52.776;6.968;2023-07-22T09:33:30;18.30;99.90
56725;DHT22;42608;52.776;6.968;2023-07-22T09:35:55;18.20;99.90
56725;DHT22;42608;52.776;6.968;2023-07-22T09:38:24;18.20;99.90
56725;DHT22;42608;52.776;6.968;2023-07-22T09:40:51;18.10;99.90
56725;DHT22;42608;52.776;6.968;2023-07-22T09:43:17;18.10;99.90
56725;DHT22;42608;52.776;6.968;2023-07-22T09:45:47;18.10;99.90
56725;DHT22;42608;52.776;6.968;2023-07-22T09:48:13;18.00;99.90
56725;DHT22;42608;52.776;6.968;2023-07-22T09:50:38;18.00;99.90
56725;DHT22;42608;52.776;6.968;2023-07-22T09:53:04;18.00;99.90
56725;DHT22;42608;52.776;6.968;2023-07-22T09:55:31;17.90;99.90
56725;DHT22;42608;52.776;6.968;2023-07-22T09:58:04;17.90;99.90
56725;DHT22;42608;52.776;6.968;2023-07-22T10:00:34;17.80;99.90
56725;DHT22;42608;52.776;6.968;2023-07-22T10:03:02;17.80;99.90
56725;DHT22;42608;52.776;6.968;2023-07-22T10:05:34;17.70;99.90
56725;DHT22;42608;52.776;6.968;2023-07-22T10:08:03;17.60;99.90
56725;DHT22;42608;52.776;6.968;2023-07-22T10:10:32;17.60;99.90
56725;DHT22;42608;52.776;6.968;2023-07-22T10:13:04;17.50;99.90
56725;DHT22;42608;52.776;6.968;2023-07-22T10:15:31;17.50;99.90
56725;DHT22;42608;52.776;6.968;2023-07-22T10:18:00;17.40;99.90
56725;DHT22;42608;52.776;6.968;2023-07-22T10:20:26;17.30;99.90
56725;DHT22;42608;52.776;6.968;2023-07-22T10:22:52;17.30;99.90
56725;DHT22;42608;52.776;6.968;2023-07-22T10:25:19;17.30;99.90
56725;DHT22;42608;52.776;6.968;2023-07-22T10:27:46;17.30;99.90
56725;DHT22;42608;52.776;6.968;2023-07-22T10:30:14;17.20;99.90
56725;DHT22;42608;52.776;6.968;2023-07-22T10:32:48;17.10;99.90
56725;DHT22;42608;52.776;6.968;2023-07-22T10:35:42;17.00;99.90
56725;DHT22;42608;52.776;6.968;2023-07-22T10:38:16;16.90;99.90
56725;DHT22;42608;52.776;6.968;2023-07-22T10:40:51;16.80;99.90
56725;DHT22;42608;52.776;6.968;2023-07-22T10:43:18;16.70;99.90
56725;DHT22;42608;52.776;6.968;2023-07-22T10:45:52;16.70;99.90
56725;DHT22;42608;52.776;6.968;2023-07-22T10:48:18;16.70;99.90
56725;DHT22;42608;52.776;6.968;2023-07-22T10:50:49;16.80;99.90
56725;DHT22;42608;52.776;6.968;2023-07-22T10:56:20;16.80;99.90
56725;DHT22;42608;52.776;6.968;2023-07-22T11:01:37;16.90;99.90
56725;DHT22;42608;52.776;6.968;2023-07-22T11:04:25;16.90;99.90
56725;DHT22;42608;52.776;6.968;2023-07-22T11:07:04;16.90;99.90
56725;DHT22;42608;52.776;6.968;2023-07-22T11:09:34;16.80;99.90
56725;DHT22;42608;52.776;6.968;2023-07-22T11:12:08;16.80;99.90
56725;DHT22;42608;52.776;6.968;2023-07-22T11:14:52;16.80;99.90
56725;DHT22;42608;52.776;6.968;2023-07-22T11:17:31;16.80;99.90
56725;DHT22;42608;52.776;6.968;2023-07-22T11:19:59;16.80;99.90
56725;DHT22;42608;52.776;6.968;2023-07-22T11:22:25;16.80;99.90
56725;DHT22;42608;52.776;6.968;2023-07-22T11:24:52;16.80;99.90
56725;DHT22;42608;52.776;6.968;2023-07-22T11:27:18;16.70;99.90
56725;DHT22;42608;52.776;6.968;2023-07-22T11:29:44;16.70;99.90
56725;DHT22;42608;52.776;6.968;2023-07-22T11:32:18;16.70;99.90
56725;DHT22;42608;52.776;6.968;2023-07-22T11:34:45;16.70;99.90
56725;DHT22;42608;52.776;6.968;2023-07-22T11:37:11;16.70;99.90
56725;DHT22;42608;52.776;6.968;2023-07-22T11:39:36;16.60;99.90
56725;DHT22;42608;52.776;6.968;2023-07-22T11:42:04;16.60;99.90
56725;DHT22;42608;52.776;6.968;2023-07-22T11:44:30;16.70;99.90
56725;DHT22;42608;52.776;6.968;2023-07-22T11:47:02;16.70;99.90
56725;DHT22;42608;52.776;6.968;2023-07-22T11:49:34;16.60;99.90
56725;DHT22;42608;52.776;6.968;2023-07-22T11:52:07;16.50;99.90
56725;DHT22;42608;52.776;6.968;2023-07-22T11:54:37;16.50;99.90
56725;DHT22;42608;52.776;6.968;2023-07-22T11:57:22;16.50;99.90
56725;DHT22;42608;52.776;6.968;2023-07-22T11:59:51;16.40;99.90
56725;DHT22;42608;52.776;6.968;2023-07-22T12:02:18;16.40;99.90
56725;DHT22;42608;52.776;6.968;2023-07-22T12:04:53;16.40;99.90
56725;DHT22;42608;52.776;6.968;2023-07-22T12:07:29;16.30;99.90
56725;DHT22;42608;52.776;6.968;2023-07-22T12:09:57;16.30;99.90
56725;DHT22;42608;52.776;6.968;2023-07-22T12:12:40;16.30;99.90
56725;DHT22;42608;52.776;6.968;2023-07-22T12:15:17;16.30;99.90
56725;DHT22;42608;52.776;6.968;2023-07-22T12:20:27;16.20;99.90
56725;DHT22;42608;52.776;6.968;2023-07-22T12:22:54;16.20;99.90
56725;DHT22;42608;52.776;6.968;2023-07-22T12:25:20;16.10;99.90
56725;DHT22;42608;52.776;6.968;2023-07-22T12:27:49;16.10;99.90
56725;DHT22;42608;52.776;6.968;2023-07-22T12:30:21;16.10;99.90
56725;DHT22;42608;52.776;6.968;2023-07-22T12:32:47;16.10;99.90
56725;DHT22;42608;52.776;6.968;2023-07-22T12:35:19;16.10;99.90
56725;DHT22;42608;52.776;6.968;2023-07-22T12:37:47;16.10;99.90
56725;DHT22;42608;52.776;6.968;2023-07-22T12:40:14;16.10;99.90
56725;DHT22;42608;52.776;6.968;2023-07-22T12:42:39;16.20;99.90
56725;DHT22;42608;52.776;6.968;2023-07-22T12:45:06;16.20;99.90
56725;DHT22;42608;52.776;6.968;2023-07-22T12:47:32;16.10;99.90
56725;DHT22;42608;52.776;6.968;2023-07-22T12:49:57;16.20;99.90
56725;DHT22;42608;52.776;6.968;2023-07-22T12:52:23;16.20;99.90
56725;DHT22;42608;52.776;6.968;2023-07-22T12:54:49;16.10;99.90
56725;DHT22;42608;52.776;6.968;2023-07-22T12:57:20;16.20;99.90
56725;DHT22;42608;52.776;6.968;2023-07-22T12:59:46;16.20;99.90
56725;DHT22;42608;52.776;6.968;2023-07-22T13:02:17;16.10;99.90
56725;DHT22;42608;52.776;6.968;2023-07-22T13:04:43;16.10;99.90
56725;DHT22;42608;52.776;6.968;2023-07-22T13:07:09;16.10;99.90
56725;DHT22;42608;52.776;6.968;2023-07-22T13:09:35;16.10;99.90
56725;DHT22;42608;52.776;6.968;2023-07-22T13:12:01;16.10;99.90
56725;DHT22;42608;52.776;6.968;2023-07-22T13:14:26;16.10;99.90
56725;DHT22;42608;52.776;6.968;2023-07-22T13:16:52;16.00;99.90
56725;DHT22;42608;52.776;6.968;2023-07-22T13:19:18;16.00;99.90
56725;DHT22;42608;52.776;6.968;2023-07-22T13:21:43;15.90;99.90
56725;DHT22;42608;52.776;6.968;2023-07-22T13:24:09;15.80;99.90
56725;DHT22;42608;52.776;6.968;2023-07-22T13:26:35;15.70;99.90
56725;DHT22;42608;52.776;6.968;2023-07-22T13:29:01;15.70;99.90
56725;DHT22;42608;52.776;6.968;2023-07-22T13:31:27;15.70;99.90
56725;DHT22;42608;52.776;6.968;2023-07-22T13:33:52;15.60;99.90
56725;DHT22;42608;52.776;6.968;2023-07-22T13:36:18;15.50;99.90
56725;DHT22;42608;52.776;6.968;2023-07-22T13:38:43;15.50;99.90
56725;DHT22;42608;52.776;6.968;2023-07-22T13:41:12;15.40;99.90
56725;DHT22;42608;52.776;6.968;2023-07-22T13:43:38;15.30;99.90
56725;DHT22;42608;52.776;6.968;2023-07-22T13:46:03;15.30;99.90
56725;DHT22;42608;52.776;6.968;2023-07-22T13:48:32;15.30;99.90
56725;DHT22;42608;52.776;6.968;2023-07-22T13:50:58;15.40;99.90
56725;DHT22;42608;52.776;6.968;2023-07-22T13:53:24;15.40;99.90
56725;DHT22;42608;52.776;6.968;2023-07-22T13:55:49;15.40;99.90
56725;DHT22;42608;52.776;6.968;2023-07-22T13:58:15;15.50;99.90
56725;DHT22;42608;52.776;6.968;2023-07-22T14:00:40;15.50;99.90
56725;DHT22;42608;52.776;6.968;2023-07-22T14:03:06;15.50;99.90
56725;DHT22;42608;52.776;6.968;2023-07-22T14:05:35;15.60;99.90
56725;DHT22;42608;52.776;6.968;2023-07-22T14:08:01;15.60;99.90
56725;DHT22;42608;52.776;6.968;2023-07-22T14:10:27;15.70;99.90
56725;DHT22;42608;52.776;6.968;2023-07-22T14:12:52;15.70;99.90
56725;DHT22;42608;52.776;6.968;2023-07-22T14:15:18;15.70;99.90
56725;DHT22;42608;52.776;6.968;2023-07-22T14:17:44;15.80;99.90
56725;DHT22;42608;52.776;6.968;2023-07-22T14:20:10;15.80;99.90
56725;DHT22;42608;52.776;6.968;2023-07-22T14:22:37;15.80;99.90
56725;DHT22;42608;52.776;6.968;2023-07-22T14:25:03;15.80;99.90
56725;DHT22;42608;52.776;6.968;2023-07-22T14:27:29;15.90;99.90
56725;DHT22;42608;52.776;6.968;2023-07-22T14:30:15;15.90;99.90
56725;DHT22;42608;52.776;6.968;2023-07-22T14:32:43;15.90;99.90
56725;DHT22;42608;52.776;6.968;2023-07-22T14:35:11;15.90;99.90
56725;DHT22;42608;52.776;6.968;2023-07-22T14:37:37;15.90;99.90
56725;DHT22;42608;52.776;6.968;2023-07-22T14:40:03;15.90;99.90
56725;DHT22;42608;52.776;6.968;2023-07-22T14:42:33;15.90;99.90
56725;DHT22;42608;52.776;6.968;2023-07-22T14:44:58;15.80;99.90
56725;DHT22;42608;52.776;6.968;2023-07-22T14:47:24;15.80;99.90
56725;DHT22;42608;52.776;6.968;2023-07-22T14:49:50;15.80;99.90
56725;DHT22;42608;52.776;6.968;2023-07-22T14:52:16;15.90;99.90
56725;DHT22;42608;52.776;6.968;2023-07-22T14:54:42;15.90;99.90
56725;DHT22;42608;52.776;6.968;2023-07-22T14:57:07;15.90;99.90
56725;DHT22;42608;52.776;6.968;2023-07-22T14:59:33;15.90;99.90
56725;DHT22;42608;52.776;6.968;2023-07-22T15:02:02;15.90;99.90
56725;DHT22;42608;52.776;6.968;2023-07-22T15:04:30;15.90;99.90
56725;DHT22;42608;52.776;6.968;2023-07-22T15:06:57;15.90;99.90
56725;DHT22;42608;52.776;6.968;2023-07-22T15:09:22;15.90;99.90
56725;DHT22;42608;52.776;6.968;2023-07-22T15:11:48;15.90;99.90
56725;DHT22;42608;52.776;6.968;2023-07-22T15:14:14;15.90;99.90
56725;DHT22;42608;52.776;6.968;2023-07-22T15:16:40;15.90;99.90
56725;DHT22;42608;52.776;6.968;2023-07-22T15:19:06;15.90;99.90
56725;DHT22;42608;52.776;6.968;2023-07-22T15:21:33;15.90;99.90
56725;DHT22;42608;52.776;6.968;2023-07-22T15:23:58;15.90;99.90
56725;DHT22;42608;52.776;6.968;2023-07-22T15:26:24;15.90;99.90
56725;DHT22;42608;52.776;6.968;2023-07-22T15:28:51;15.90;99.90
56725;DHT22;42608;52.776;6.968;2023-07-22T15:31:20;15.90;99.90
56725;DHT22;42608;52.776;6.968;2023-07-22T15:33:46;15.90;99.90
56725;DHT22;42608;52.776;6.968;2023-07-22T15:36:12;15.90;99.90
56725;DHT22;42608;52.776;6.968;2023-07-22T15:38:37;15.90;99.90